createdAt,value
2023-05-01T00:01:51.961Z,2.20
2023-05-01T00:05:33.920Z,2.67
2023-05-01T00:09:16.308Z,2.83
2023-05-01T00:12:58.268Z,2.50
2023-05-01T00:16:40.269Z,2.47
2023-05-01T00:20:23.633Z,2.60
2023-05-01T00:24:06.041Z,2.40
2023-05-01T00:27:48.903Z,2.38
2023-05-01T00:31:31.054Z,2.13
2023-05-01T00:35:13.444Z,2.42
2023-05-01T00:38:55.409Z,2.40
2023-05-01T00:42:39.435Z,2.30
2023-05-01T00:46:21.837Z,2.28
2023-05-01T00:50:05.138Z,2.47
2023-05-01T00:53:47.192Z,2.58
2023-05-01T00:57:29.092Z,2.47
2023-05-01T01:01:11.636Z,2.42
2023-05-01T01:04:54.143Z,2.63
2023-05-01T01:08:55.257Z,3.03
2023-05-01T01:12:58.958Z,2.65
2023-05-01T01:16:52.833Z,2.90
2023-05-01T01:20:38.174Z,3.25
2023-05-01T01:24:45.203Z,2.88
2023-05-01T01:28:54.390Z,2.90
2023-05-01T01:33:01.369Z,2.63
2023-05-01T01:37:22.657Z,2.67
2023-05-01T01:41:21.429Z,2.72
2023-05-01T01:45:10.886Z,2.75
2023-05-01T01:48:54.780Z,2.78
2023-05-01T01:52:38.993Z,2.92
2023-05-01T01:56:22.971Z,2.73
2023-05-01T02:00:08.975Z,3.25
2023-05-01T02:03:52.033Z,2.90
2023-05-01T02:07:37.669Z,2.60
2023-05-01T02:11:21.940Z,2.20
2023-05-01T02:15:06.682Z,2.40
2023-05-01T02:18:50.523Z,2.38
2023-05-01T02:22:33.600Z,2.45
2023-05-01T02:26:19.862Z,2.33
2023-05-01T02:30:02.500Z,1.77
2023-05-01T02:33:44.367Z,2.07
2023-05-01T02:37:26.368Z,2.60
2023-05-01T02:41:10.568Z,2.00
2023-05-01T02:45:00.281Z,2.10
2023-05-01T02:48:42.977Z,2.25
2023-05-01T02:52:25.223Z,2.78
2023-05-01T02:56:08.120Z,3.13
2023-05-01T02:59:50.050Z,3.42
2023-05-01T03:03:32.126Z,2.83
2023-05-01T03:07:14.647Z,2.95
2023-05-01T03:10:56.650Z,3.17
2023-05-01T03:14:38.561Z,2.83
2023-05-01T03:18:20.488Z,3.35
2023-05-01T03:22:03.477Z,3.50
2023-05-01T03:25:45.745Z,2.80
2023-05-01T03:29:27.952Z,2.90
2023-05-01T03:33:09.851Z,2.97
2023-05-01T03:36:52.411Z,3.20
2023-05-01T03:40:34.398Z,3.10
2023-05-01T03:44:16.257Z,3.05
2023-05-01T03:47:58.868Z,3.00
2023-05-01T03:51:40.841Z,3.35
2023-05-01T03:55:22.748Z,4.43
2023-05-01T03:59:04.717Z,6.00
2023-05-01T04:02:46.748Z,9.98
2023-05-01T04:06:28.876Z,10.63
2023-05-01T04:10:11.004Z,10.20
2023-05-01T04:13:53.194Z,8.00
2023-05-01T04:17:37.520Z,6.00
2023-05-01T04:21:19.498Z,5.20
2023-05-01T04:25:01.380Z,4.17
2023-05-01T04:28:43.369Z,3.58
2023-05-01T04:32:25.208Z,3.38
2023-05-01T04:36:07.778Z,3.33
2023-05-01T04:39:50.981Z,3.17
2023-05-01T04:43:33.263Z,3.83
2023-05-01T04:47:15.217Z,3.67
2023-05-01T04:50:57.861Z,3.30
2023-05-01T04:54:39.681Z,3.33
2023-05-01T04:58:21.757Z,3.15
2023-05-01T05:02:03.746Z,3.03
2023-05-01T05:05:48.624Z,3.75
2023-05-01T05:09:30.503Z,2.80
2023-05-01T05:13:12.835Z,3.30
2023-05-01T05:16:55.069Z,3.17
2023-05-01T05:20:40.217Z,3.42
2023-05-01T05:24:22.100Z,3.15
2023-05-01T05:28:04.484Z,3.55
2023-05-01T05:31:47.866Z,3.22
2023-05-01T05:35:30.038Z,3.33
2023-05-01T05:39:13.316Z,3.00
2023-05-01T05:43:06.289Z,3.35
2023-05-01T05:46:48.396Z,3.00
2023-05-01T05:50:31.210Z,3.27
2023-05-01T05:54:20.907Z,3.28
2023-05-01T05:58:02.811Z,3.47
2023-05-01T06:01:45.115Z,3.08
2023-05-01T06:05:38.835Z,3.55
2023-05-01T06:09:30.835Z,3.20
2023-05-01T06:13:28.143Z,3.60
2023-05-01T06:17:22.763Z,3.73
2023-05-01T06:21:22.086Z,3.80
2023-05-01T06:25:16.169Z,4.53
2023-05-01T06:29:14.174Z,5.83
2023-05-01T06:33:10.020Z,4.43
2023-05-01T06:37:07.865Z,4.80
2023-05-01T06:41:02.206Z,4.88
2023-05-01T06:44:59.118Z,4.90
2023-05-01T06:48:56.790Z,4.88
2023-05-01T06:52:54.212Z,5.40
2023-05-01T06:56:48.292Z,6.00
2023-05-01T07:00:46.821Z,6.53
2023-05-01T07:05:17.154Z,5.78
2023-05-01T07:09:48.966Z,6.00
2023-05-01T07:13:41.217Z,6.50
2023-05-01T07:17:43.207Z,5.45
2023-05-01T07:21:34.722Z,5.22
2023-05-01T07:25:44.490Z,6.03
2023-05-01T07:29:27.278Z,6.97
2023-05-01T07:37:24.186Z,6.53
2023-05-01T07:41:22.773Z,6.72
2023-05-01T07:45:15.079Z,7.40
2023-05-01T07:49:45.393Z,6.53
2023-05-01T07:53:44.830Z,4.97
2023-05-01T07:57:37.027Z,5.27
2023-05-01T08:01:35.047Z,4.65
2023-05-01T08:06:07.848Z,3.67
2023-05-01T08:10:01.079Z,4.65
2023-05-01T08:14:01.201Z,4.00
2023-05-01T08:17:54.130Z,3.97
2023-05-01T08:21:54.817Z,4.05
2023-05-01T08:25:47.151Z,3.20
2023-05-01T08:29:44.907Z,3.80
2023-05-01T08:33:42.344Z,3.00
2023-05-01T08:37:38.109Z,3.00
2023-05-01T08:42:10.604Z,3.08
2023-05-01T08:51:45.308Z,2.53
2023-05-01T08:55:44.109Z,2.65
2023-05-01T08:59:38.988Z,2.10
2023-05-01T09:03:35.477Z,2.40
2023-05-01T09:07:29.522Z,2.20
2023-05-01T09:12:00.807Z,2.20
2023-05-01T09:15:54.074Z,1.65
2023-05-01T09:23:51.398Z,2.20
2023-05-01T09:33:24.265Z,2.22
2023-05-01T09:38:27.286Z,1.80
2023-05-01T09:43:02.649Z,1.90
2023-05-01T09:46:54.663Z,2.10
2023-05-01T09:51:25.774Z,2.17
2023-05-01T09:55:18.373Z,3.28
2023-05-01T10:03:15.407Z,2.17
2023-05-01T10:08:19.183Z,2.00
2023-05-01T10:12:49.296Z,2.35
2023-05-01T10:17:19.755Z,2.22
2023-05-01T10:21:50.551Z,2.35
2023-05-01T10:25:45.074Z,2.67
2023-05-01T10:29:42.968Z,2.55
2023-05-01T10:34:13.485Z,2.33
2023-05-01T10:38:05.609Z,1.90
2023-05-01T10:42:06.618Z,1.95
2023-05-01T10:50:10.230Z,1.90
2023-05-01T10:58:59.856Z,1.83
2023-05-01T11:03:31.480Z,2.42
2023-05-01T11:07:30.096Z,1.80
2023-05-01T11:11:25.846Z,1.88
2023-05-01T11:15:29.393Z,2.50
2023-05-01T11:19:21.487Z,1.60
2023-05-01T11:23:47.402Z,1.70
2023-05-01T11:32:19.141Z,1.60
2023-05-01T11:36:12.600Z,1.35
2023-05-01T11:40:22.846Z,1.83
2023-05-01T11:48:04.637Z,1.70
2023-05-01T11:51:58.909Z,1.98
2023-05-01T11:55:55.805Z,2.10
2023-05-01T11:59:49.164Z,1.80
2023-05-01T12:03:49.857Z,1.98
2023-05-01T12:08:19.253Z,1.92
2023-05-01T12:12:50.087Z,2.07
2023-05-01T12:17:19.945Z,1.30
2023-05-01T12:21:50.214Z,1.27
2023-05-01T12:26:20.463Z,1.08
2023-05-01T12:30:51.264Z,1.13
2023-05-01T12:35:23.785Z,0.98
2023-05-01T12:39:16.699Z,1.33
2023-05-01T12:43:14.266Z,0.80
2023-05-01T12:47:08.919Z,1.27
2023-05-01T13:06:16.071Z,0.90
2023-05-01T13:10:29.825Z,1.33
2023-05-01T13:14:12.631Z,1.10
2023-05-01T13:18:12.936Z,1.00
2023-05-01T13:22:02.608Z,1.08
2023-05-01T13:29:57.799Z,1.00
2023-05-01T13:33:58.688Z,1.27
2023-05-01T13:37:47.910Z,1.00
2023-05-01T13:41:51.963Z,1.13
2023-05-01T13:45:41.278Z,1.23
2023-05-01T13:50:12.159Z,1.00
2023-05-01T13:54:15.601Z,0.90
2023-05-01T13:58:07.304Z,0.90
2023-05-01T14:02:36.128Z,1.25
2023-05-01T14:06:43.190Z,1.73
2023-05-01T14:10:29.969Z,1.38
2023-05-01T14:19:01.816Z,1.10
2023-05-01T14:22:53.522Z,1.30
2023-05-01T14:26:53.467Z,1.10
2023-05-01T14:31:23.707Z,1.10
2023-05-01T14:35:18.157Z,1.02
2023-05-01T14:39:46.297Z,1.27
2023-05-01T14:43:51.434Z,1.20
2023-05-01T14:47:49.179Z,0.98
2023-05-01T14:51:41.705Z,1.40
2023-05-01T14:55:34.972Z,1.23
2023-05-01T14:59:34.586Z,0.90
2023-05-01T15:03:25.472Z,1.10
2023-05-01T15:07:28.478Z,0.90
2023-05-01T15:11:20.977Z,1.20
2023-05-01T15:15:23.429Z,1.10
2023-05-01T15:19:13.203Z,1.30
2023-05-01T15:23:13.412Z,1.10
2023-05-01T15:27:44.633Z,1.17
2023-05-01T15:31:34.406Z,1.05
2023-05-01T15:39:30.746Z,1.27
2023-05-01T15:43:30.780Z,1.20
2023-05-01T15:47:21.525Z,0.90
2023-05-01T15:51:25.999Z,1.30
2023-05-01T15:55:15.309Z,1.05
2023-05-01T16:03:10.117Z,1.00
2023-05-01T16:07:10.752Z,1.00
2023-05-01T16:11:01.062Z,0.87
2023-05-01T16:15:04.373Z,1.45
2023-05-01T16:18:58.366Z,0.90
2023-05-01T16:22:54.710Z,0.80
2023-05-01T16:26:50.277Z,1.17
2023-05-01T16:30:48.386Z,1.10
2023-05-01T16:34:41.466Z,1.35
2023-05-01T16:38:41.039Z,0.85
2023-05-01T16:42:34.306Z,1.13
2023-05-01T16:51:06.465Z,0.90
2023-05-01T16:55:34.751Z,1.10
2023-05-01T17:00:05.392Z,1.15
2023-05-01T17:04:35.898Z,1.02
2023-05-01T17:09:06.420Z,0.90
2023-05-01T17:12:57.113Z,1.47
2023-05-01T17:17:01.045Z,1.60
2023-05-01T17:20:51.106Z,1.08
2023-05-01T17:24:54.049Z,1.57
2023-05-01T17:28:46.761Z,1.85
2023-05-01T17:32:45.560Z,1.92
2023-05-01T17:36:38.010Z,1.30
2023-05-01T17:40:38.234Z,1.35
2023-05-01T17:44:30.709Z,1.30
2023-05-01T17:48:31.491Z,1.42
2023-05-01T17:52:24.448Z,1.77
2023-05-01T17:56:24.831Z,1.50
2023-05-01T18:00:18.614Z,1.40
2023-05-01T18:04:18.631Z,1.20
2023-05-01T18:08:09.954Z,1.30
2023-05-01T18:12:13.051Z,1.77
2023-05-01T18:16:06.561Z,1.20
2023-05-01T18:32:43.281Z,1.00
2023-05-01T18:41:28.181Z,0.93
2023-05-01T18:45:58.996Z,1.40
2023-05-01T18:49:52.534Z,0.90
2023-05-01T18:53:52.442Z,1.20
2023-05-01T18:57:43.498Z,1.05
2023-05-01T19:01:46.461Z,1.15
2023-05-01T19:05:36.214Z,1.23
2023-05-01T19:09:39.346Z,0.87
2023-05-01T19:13:29.213Z,1.10
2023-05-01T19:22:02.665Z,1.30
2023-05-01T19:25:44.872Z,1.00
2023-05-01T19:29:27.276Z,1.25
2023-05-01T19:33:09.260Z,1.30
2023-05-01T19:36:56.564Z,1.25
2023-05-01T19:40:39.746Z,1.30
2023-05-01T19:44:22.504Z,1.30
2023-05-01T19:48:04.706Z,1.20
2023-05-01T19:51:46.727Z,1.30
2023-05-01T19:55:28.695Z,1.10
2023-05-01T19:59:10.619Z,1.07
2023-05-01T20:02:53.128Z,1.10
2023-05-01T20:06:35.204Z,1.20
2023-05-01T20:10:17.300Z,1.20
2023-05-01T20:13:59.328Z,1.30
2023-05-01T20:17:42.498Z,1.40
2023-05-01T20:21:24.502Z,1.30
2023-05-01T20:25:09.365Z,1.30
2023-05-01T20:28:52.360Z,1.50
2023-05-01T20:32:34.390Z,2.05
2023-05-01T20:36:17.348Z,1.70
2023-05-01T20:39:59.559Z,1.70
2023-05-01T20:43:41.661Z,1.90
2023-05-01T20:47:24.159Z,1.40
2023-05-01T20:51:06.450Z,1.55
2023-05-01T20:54:48.360Z,1.83
2023-05-01T20:58:30.594Z,1.40
2023-05-01T21:02:12.476Z,1.47
2023-05-01T21:06:01.810Z,1.52
2023-05-01T21:09:45.760Z,1.08
2023-05-01T21:13:28.463Z,1.50
2023-05-01T21:17:10.764Z,1.50
2023-05-01T21:20:52.687Z,1.38
2023-05-01T21:24:36.512Z,1.60
2023-05-01T21:28:18.500Z,1.80
2023-05-01T21:32:04.204Z,1.40
2023-05-01T21:35:46.853Z,1.45
2023-05-01T21:39:29.038Z,1.37
2023-05-01T21:43:11.361Z,1.45
2023-05-01T21:46:56.215Z,1.30
2023-05-01T21:50:38.295Z,1.27
2023-05-01T21:54:21.621Z,1.38
2023-05-01T21:58:04.353Z,1.30
2023-05-01T22:01:46.385Z,1.40
2023-05-01T22:05:31.054Z,1.33
2023-05-01T22:09:13.288Z,1.30
2023-05-01T22:12:55.246Z,1.52
2023-05-01T22:16:37.220Z,1.60
2023-05-01T22:20:19.249Z,1.48
2023-05-01T22:24:01.502Z,1.30
2023-05-01T22:27:43.469Z,1.60
2023-05-01T22:31:25.420Z,1.60
2023-05-01T22:35:08.978Z,2.00
2023-05-01T22:38:51.179Z,1.50
2023-05-01T22:42:33.084Z,1.77
2023-05-01T22:46:14.963Z,1.60
2023-05-01T22:49:57.157Z,1.60
2023-05-01T22:53:39.353Z,1.80
2023-05-01T22:57:21.294Z,2.47
2023-05-01T23:01:03.266Z,1.55
2023-05-01T23:04:46.176Z,1.73
2023-05-01T23:08:28.416Z,1.67
2023-05-01T23:12:19.242Z,1.75
2023-05-01T23:16:01.240Z,1.50
2023-05-01T23:19:44.001Z,1.23
2023-05-01T23:23:31.076Z,1.90
2023-05-01T23:27:15.569Z,1.70
2023-05-01T23:30:58.678Z,2.07
2023-05-01T23:34:40.846Z,1.55
2023-05-01T23:38:22.740Z,1.73
2023-05-01T23:42:05.466Z,2.33
2023-05-01T23:45:47.508Z,2.45
2023-05-01T23:49:29.518Z,2.58
2023-05-01T23:53:11.508Z,2.28
2023-05-01T23:56:53.677Z,2.15
